Portada
METAR-TAF:

METAR-TAF

Aeroports :

Kutaïsi, Geòrgia

latitud: 42-10-35N, longitud: 042-28-57E, altitud: 68 m

Observació

L'informe es va fer fa 36 minuts, a les 05:30 UTC
Vent 7 kt del Est
Temperatura 15°C
Humitat 82%
Pressió 1024 hPa
Visibilitat 10 km o més
sense núvols per sota de 1500 mi sense presència de cumulonimbus.

METAR: UGKO 230530Z 08007KT CAVOK 15/12 Q1024 NOSIG

Hora: 10:06 (06:06 UTC)

Pronòstic

L'informe es va fer fa 1 hora i 6 minuts, a les 05:00 UTC
Pronòstic vàlid del 23 a les 06 UTC al 24 a les 06 UTC
Vent 7 kt del Est
Visibilitat 10 km o més
sense núvols per sota de 1500 mi sense presència de cumulonimbus.
Temporalment
l' 23 a les 19 UTC al 24 a les 06 UTC
Vent 17 kt del Est

TAF: UGKO 230500Z 2306/2406 08007KT CAVOK TX24/2311Z TN12/2401Z TEMPO 2319/2406 08017KT

Observacions i pronòstics meteorològics de més de 4000 aeroports (METAR i TAF).

Les estacions disponibles són els punts grocs i vermells al mapa.

Posi el ratolí al punt desitjat per veure el nom de l'estació.

Feu clic per veure les observacions i els pronòstics meteorològics.

Per canviar el mapa: feu clic els botons verds amb una creu de color negre per apropar; al botó verd amb un guió per allunyar la imatge; o en les fletxes verdes per a mapes adjacents.


METAR-TAF: